createdAt,value
2023-05-09T04:37:56.074Z,97061.78
2023-05-09T04:39:58.905Z,97054.88
2023-05-09T04:42:01.672Z,97054.53
2023-05-09T04:44:05.090Z,97050.53
2023-05-09T04:46:08.318Z,97043.63
2023-05-09T04:48:11.911Z,97034.78
2023-05-09T04:50:14.758Z,97039.53
2023-05-09T04:52:17.706Z,97038.53
2023-05-09T04:54:21.922Z,97041.66
2023-05-09T04:56:24.701Z,97035.13
2023-05-09T04:58:27.751Z,97033.31
2023-05-09T05:00:30.607Z,97038.44
2023-05-09T05:02:33.506Z,97037.72
2023-05-09T05:04:36.268Z,97040.16
2023-05-09T05:06:39.294Z,97033.81
2023-05-09T05:08:42.237Z,97041.16
2023-05-09T05:10:47.444Z,97034.25
2023-05-09T05:12:50.332Z,97042.59
2023-05-09T05:14:53.166Z,97030.25
2023-05-09T05:16:55.899Z,97040.72
2023-05-09T05:18:58.902Z,97030.00
2023-05-09T05:21:01.775Z,97040.53
2023-05-09T05:23:04.546Z,97031.41
2023-05-09T05:25:08.692Z,97027.69
2023-05-09T05:27:13.423Z,97027.13
2023-05-09T05:29:17.556Z,97026.06
2023-05-09T05:31:20.510Z,97028.50
2023-05-09T05:33:23.694Z,97021.81
2023-05-09T05:35:28.788Z,97026.94
2023-05-09T05:37:32.860Z,97031.72
2023-05-09T05:39:35.701Z,97027.19
2023-05-09T05:41:38.686Z,97033.59
2023-05-09T05:43:43.070Z,97028.00
2023-05-09T05:45:45.860Z,97031.25
2023-05-09T05:47:48.594Z,97022.13
2023-05-09T05:49:51.847Z,97027.59
2023-05-09T05:51:54.594Z,97028.72
2023-05-09T05:53:57.381Z,97017.28
2023-05-09T05:56:01.039Z,97026.72
2023-05-09T05:58:03.891Z,97021.13
2023-05-09T06:00:11.717Z,97014.19
2023-05-09T06:02:14.623Z,97014.28
2023-05-09T06:04:17.829Z,97020.28
2023-05-09T06:06:21.712Z,97015.72
2023-05-09T06:08:24.604Z,97007.41
2023-05-09T06:10:27.416Z,97011.50
2023-05-09T06:12:30.168Z,97014.50
2023-05-09T06:14:34.592Z,97007.56
2023-05-09T06:16:38.957Z,96999.06
2023-05-09T06:18:41.773Z,97000.13
2023-05-09T06:20:44.821Z,96993.44
2023-05-09T06:22:47.604Z,96985.44
2023-05-09T06:24:50.403Z,96987.41
2023-05-09T06:26:53.458Z,96989.56
2023-05-09T06:28:56.577Z,96992.81
2023-05-09T06:30:59.413Z,96987.44
2023-05-09T06:33:03.599Z,96985.88
2023-05-09T06:35:07.296Z,96982.16
2023-05-09T06:37:10.224Z,96976.78
2023-05-09T06:39:13.633Z,96983.78
2023-05-09T06:41:16.393Z,96987.53
2023-05-09T06:43:19.324Z,96983.19
2023-05-09T06:45:22.213Z,96980.22
2023-05-09T06:47:26.114Z,96977.94
2023-05-09T06:49:30.329Z,96980.88
2023-05-09T06:51:35.079Z,96975.22
2023-05-09T06:53:38.155Z,96972.22
2023-05-09T06:55:41.110Z,96972.38
2023-05-09T06:57:44.153Z,96975.06
2023-05-09T06:59:47.116Z,96965.16
2023-05-09T07:01:49.974Z,96965.16
2023-05-09T07:03:53.956Z,96968.63
2023-05-09T07:05:58.982Z,96962.22
2023-05-09T07:08:02.284Z,96963.03
2023-05-09T07:10:11.309Z,96956.59
2023-05-09T07:12:15.538Z,96944.81
2023-05-09T07:14:18.454Z,96944.31
2023-05-09T07:16:23.104Z,96938.41
2023-05-09T07:18:26.251Z,96936.53
2023-05-09T07:20:29.236Z,96935.22
2023-05-09T07:22:35.510Z,96930.16
2023-05-09T07:24:40.246Z,96937.13
2023-05-09T07:26:43.283Z,96923.97
2023-05-09T07:28:46.367Z,96930.97
2023-05-09T07:30:49.319Z,96923.72
2023-05-09T07:32:52.422Z,96930.97
2023-05-09T07:34:55.328Z,96924.47
2023-05-09T07:36:58.589Z,96919.94
2023-05-09T07:39:04.319Z,96907.88
2023-05-09T07:41:07.541Z,96903.06
2023-05-09T07:43:10.637Z,96901.19
2023-05-09T07:45:14.001Z,96902.00
2023-05-09T07:47:17.201Z,96890.78
2023-05-09T07:49:20.083Z,96894.03
2023-05-09T07:51:23.409Z,96892.16
2023-05-09T07:53:26.418Z,96898.31
2023-05-09T07:55:33.517Z,96885.72
2023-05-09T07:57:36.420Z,96885.22
2023-05-09T07:59:39.576Z,96881.72
2023-05-09T08:01:42.475Z,96880.16
2023-05-09T08:03:45.997Z,96879.91
2023-05-09T08:05:49.099Z,96884.50
2023-05-09T08:07:52.156Z,96878.34
2023-05-09T08:09:55.089Z,96876.47
2023-05-09T08:11:59.550Z,96872.72
2023-05-09T08:14:02.623Z,96878.16
2023-05-09T08:16:06.839Z,96867.44
2023-05-09T08:18:10.192Z,96866.44
2023-05-09T08:20:21.421Z,96855.22
2023-05-09T08:22:24.695Z,96857.41
2023-05-09T08:24:27.817Z,96852.56
2023-05-09T08:26:30.554Z,96851.03
2023-05-09T08:28:34.989Z,96849.94
2023-05-09T08:30:38.177Z,96849.69
2023-05-09T08:32:41.249Z,96843.50
2023-05-09T08:34:44.200Z,96838.13
2023-05-09T08:36:48.357Z,96845.13
2023-05-09T08:38:51.428Z,96847.81
2023-05-09T08:40:54.287Z,96841.66
2023-05-09T08:42:57.770Z,96844.09
2023-05-09T08:45:03.056Z,96841.41
2023-05-09T08:47:06.541Z,96838.44
2023-05-09T08:49:10.901Z,96838.44
2023-05-09T08:51:16.110Z,96833.88
2023-05-09T08:53:19.212Z,96826.63
2023-05-09T08:55:22.861Z,96823.13
2023-05-09T08:57:25.971Z,96827.41
2023-05-09T08:59:32.090Z,96831.97
2023-05-09T09:01:36.706Z,96831.19
2023-05-09T09:03:40.231Z,96816.69
2023-05-09T09:05:44.127Z,96823.94
2023-05-09T09:07:48.034Z,96814.81
2023-05-09T09:09:51.540Z,96814.53
2023-05-09T09:11:55.565Z,96808.13
2023-05-09T09:14:02.293Z,96801.69
2023-05-09T09:16:06.346Z,96798.50
2023-05-09T09:18:13.182Z,96791.78
2023-05-09T09:20:19.654Z,96790.97
2023-05-09T09:22:23.708Z,96799.59
2023-05-09T09:24:26.698Z,96792.06
2023-05-09T09:26:31.831Z,96800.72
2023-05-09T09:28:35.176Z,96793.75
2023-05-09T09:30:45.838Z,96785.69
2023-05-09T09:32:48.727Z,96790.28
2023-05-09T09:35:06.986Z,96782.78
2023-05-09T09:37:10.113Z,96785.22
2023-05-09T09:39:14.527Z,96781.72
2023-05-09T09:41:17.399Z,96779.84
2023-05-09T09:43:20.929Z,96777.16
2023-05-09T09:45:27.826Z,96775.00
2023-05-09T09:47:34.503Z,96774.22
2023-05-09T09:49:37.428Z,96765.41
2023-05-09T09:51:41.629Z,96761.38
2023-05-09T09:53:45.560Z,96749.28
2023-05-09T09:55:51.998Z,96754.13
2023-05-09T09:57:55.637Z,96753.63
2023-05-09T10:00:01.860Z,96750.41
2023-05-09T10:02:08.443Z,96737.78
2023-05-09T10:04:17.047Z,96737.53
2023-05-09T10:06:22.277Z,96731.06
2023-05-09T10:08:27.041Z,96728.91
2023-05-09T10:10:32.581Z,96723.28
2023-05-09T10:12:38.180Z,96720.84
2023-05-09T10:14:43.433Z,96720.63
2023-05-09T10:16:49.369Z,96710.09
2023-05-09T10:18:52.363Z,96712.25
2023-05-09T10:20:56.333Z,96701.50
2023-05-09T10:23:02.734Z,96698.81
2023-05-09T10:25:13.151Z,96688.88
2023-05-09T10:27:25.145Z,96693.22
2023-05-09T10:29:31.893Z,96681.13
2023-05-09T10:31:38.167Z,96685.47
2023-05-09T10:33:44.645Z,96682.25
2023-05-09T10:35:49.131Z,96678.50
2023-05-09T10:37:53.905Z,96674.47
2023-05-09T10:39:57.959Z,96668.84
2023-05-09T10:42:03.143Z,96661.31
2023-05-09T10:44:06.644Z,96660.78
2023-05-09T10:46:10.273Z,96656.75
2023-05-09T10:48:14.573Z,96651.13
2023-05-09T10:50:18.170Z,96646.78
2023-05-09T10:52:22.510Z,96650.31
2023-05-09T10:54:31.082Z,96646.25
2023-05-09T10:56:36.159Z,96642.22
2023-05-09T10:58:40.925Z,96640.34
2023-05-09T11:00:44.331Z,96646.22
2023-05-09T11:03:08.731Z,96640.84
2023-05-09T11:05:21.517Z,96636.28
2023-05-09T11:07:26.368Z,96637.09
2023-05-09T11:09:32.818Z,96625.78
2023-05-09T11:11:35.804Z,96629.56
2023-05-09T11:13:47.167Z,96632.25
2023-05-09T11:16:12.390Z,96622.03
2023-05-09T11:18:15.323Z,96623.41
2023-05-09T11:20:18.854Z,96620.94
2023-05-09T11:22:23.965Z,96619.34
2023-05-09T11:24:30.960Z,96617.47
2023-05-09T11:26:34.179Z,96614.78
2023-05-09T11:28:38.582Z,96610.97
2023-05-09T11:30:44.015Z,96606.13
2023-05-09T11:32:51.706Z,96609.06
2023-05-09T11:35:06.404Z,96616.06
2023-05-09T11:37:11.923Z,96609.88
2023-05-09T11:39:25.791Z,96616.09
2023-05-09T11:41:29.098Z,96612.31
2023-05-09T11:43:32.077Z,96608.31
2023-05-09T11:45:35.032Z,96601.06
2023-05-09T11:47:40.795Z,96605.63
2023-05-09T11:49:44.672Z,96597.28
2023-05-09T11:51:47.900Z,96602.94
2023-05-09T11:53:53.980Z,96604.81
2023-05-09T11:55:57.956Z,96593.78
2023-05-09T11:58:03.154Z,96587.88
2023-05-09T12:00:07.469Z,96585.22
2023-05-09T12:02:10.714Z,96581.97
2023-05-09T12:04:15.289Z,96583.59
2023-05-09T12:06:19.522Z,96581.19
2023-05-09T12:08:24.512Z,96577.97
2023-05-09T12:10:31.836Z,96573.38
2023-05-09T12:12:36.255Z,96573.13
2023-05-09T12:14:40.360Z,96570.44
2023-05-09T12:16:46.943Z,96575.53
2023-05-09T12:18:51.585Z,96567.47
2023-05-09T12:20:56.042Z,96556.72
2023-05-09T12:22:59.237Z,96565.06
2023-05-09T12:25:04.052Z,96553.22
2023-05-09T12:27:08.076Z,96546.50
2023-05-09T12:29:11.064Z,96543.53
2023-05-09T12:31:15.234Z,96543.25
2023-05-09T12:33:18.769Z,96546.47
2023-05-09T12:35:23.528Z,96538.69
2023-05-09T12:37:28.131Z,96547.28
2023-05-09T12:39:31.899Z,96552.41
2023-05-09T12:41:41.423Z,96547.56
2023-05-09T12:43:51.622Z,96543.81
2023-05-09T12:45:54.730Z,96551.34
2023-05-09T12:47:58.750Z,96547.28
2023-05-09T12:50:03.013Z,96534.38
2023-05-09T12:52:07.231Z,96536.00
2023-05-09T12:54:15.005Z,96524.97
2023-05-09T12:56:19.030Z,96521.47
2023-05-09T12:58:22.173Z,96533.03
2023-05-09T13:00:25.055Z,96537.59
2023-05-09T13:02:28.793Z,96541.09
2023-05-09T13:04:32.210Z,96544.59
2023-05-09T13:06:36.357Z,96544.59
2023-05-09T13:08:39.672Z,96545.13
2023-05-09T13:10:44.090Z,96551.59
2023-05-09T13:12:49.246Z,96544.34
2023-05-09T13:14:56.349Z,96541.38
2023-05-09T13:16:59.355Z,96540.31
2023-05-09T13:19:02.706Z,96544.59
2023-05-09T13:21:05.631Z,96534.66
2023-05-09T13:23:08.574Z,96537.34
2023-05-09T13:25:13.988Z,96535.44
2023-05-09T13:27:18.370Z,96533.56
2023-05-09T13:29:21.305Z,96538.63
2023-05-09T13:31:24.856Z,96532.72
2023-05-09T13:33:28.079Z,96543.47
2023-05-09T13:35:31.228Z,96534.06
2023-05-09T13:37:34.225Z,96534.34
2023-05-09T13:39:37.019Z,96528.97
2023-05-09T13:41:39.937Z,96530.56
2023-05-09T13:43:44.385Z,96534.88
2023-05-09T13:45:47.995Z,96530.31
2023-05-09T13:47:51.323Z,96532.19
2023-05-09T13:49:54.488Z,96530.00
2023-05-09T13:51:57.483Z,96542.91
2023-05-09T13:54:00.740Z,96547.75
2023-05-09T13:56:05.997Z,96547.19
2023-05-09T13:58:10.148Z,96546.13
2023-05-09T14:00:16.149Z,96545.56
2023-05-09T14:02:19.938Z,96547.44
2023-05-09T14:04:22.804Z,96544.47
2023-05-09T14:06:25.934Z,96548.78
2023-05-09T14:08:29.628Z,96543.13
2023-05-09T14:10:33.133Z,96539.09
2023-05-09T14:12:35.973Z,96540.41
2023-05-09T14:14:38.860Z,96544.97
2023-05-09T14:16:43.023Z,96535.84
2023-05-09T14:18:46.078Z,96540.69
2023-05-09T14:20:49.008Z,96539.06
2023-05-09T14:22:52.362Z,96541.22
2023-05-09T14:24:56.509Z,96540.09
2023-05-09T14:26:59.444Z,96545.22
2023-05-09T14:29:02.985Z,96539.56
2023-05-09T14:31:06.230Z,96535.75
2023-05-09T14:33:10.504Z,96536.56
2023-05-09T14:35:13.509Z,96527.97
2023-05-09T14:37:17.022Z,96531.47
2023-05-09T14:39:20.595Z,96524.75
2023-05-09T14:41:24.356Z,96528.25
2023-05-09T14:43:30.533Z,96526.38
2023-05-09T14:45:34.543Z,96524.75
2023-05-09T14:47:37.458Z,96513.47
2023-05-09T14:49:41.850Z,96528.78
2023-05-09T14:51:45.159Z,96525.03
2023-05-09T14:53:48.089Z,96527.16
2023-05-09T14:55:51.417Z,96520.19
2023-05-09T14:57:54.890Z,96527.44
2023-05-09T15:00:00.965Z,96515.88
2023-05-09T15:02:12.495Z,96515.88
2023-05-09T15:04:15.583Z,96514.28
2023-05-09T15:06:19.843Z,96520.16
2023-05-09T15:08:22.953Z,96527.66
2023-05-09T15:10:27.710Z,96524.97
2023-05-09T15:12:30.721Z,96522.81
2023-05-09T15:14:33.610Z,96531.44
2023-05-09T15:16:36.732Z,96527.94
2023-05-09T15:18:43.750Z,96527.13
2023-05-09T15:20:46.985Z,96531.16
2023-05-09T15:22:51.818Z,96528.69
2023-05-09T15:24:55.219Z,96528.41
2023-05-09T15:26:58.309Z,96525.72
2023-05-09T15:29:01.265Z,96529.47
2023-05-09T15:31:04.322Z,96524.38
2023-05-09T15:33:07.904Z,96530.00
2023-05-09T15:35:11.332Z,96536.19
2023-05-09T15:37:14.704Z,96538.31
2023-05-09T15:39:18.911Z,96534.56
2023-05-09T15:41:21.962Z,96541.53
2023-05-09T15:43:25.004Z,96532.09
2023-05-09T15:45:28.963Z,96532.38
2023-05-09T15:47:31.784Z,96531.00
2023-05-09T15:49:35.738Z,96531.53
2023-05-09T15:51:38.620Z,96524.53
2023-05-09T15:53:41.735Z,96528.28
2023-05-09T15:55:46.262Z,96533.91
2023-05-09T15:57:49.297Z,96525.31
2023-05-09T15:59:54.408Z,96526.66
2023-05-09T16:01:57.380Z,96532.28
2023-05-09T16:04:01.113Z,96535.25
2023-05-09T16:06:04.572Z,96526.38
2023-05-09T16:08:09.849Z,96520.47
2023-05-09T16:10:13.533Z,96520.97
2023-05-09T16:12:18.985Z,96521.50
2023-05-09T16:14:22.149Z,96523.09
2023-05-09T16:16:26.903Z,96518.81
2023-05-09T16:18:30.268Z,96516.13
2023-05-09T16:20:33.114Z,96517.75
2023-05-09T16:22:36.039Z,96516.66
2023-05-09T16:24:38.850Z,96519.34
2023-05-09T16:26:41.821Z,96511.56
2023-05-09T16:28:46.289Z,96520.16
2023-05-09T16:30:49.375Z,96516.66
2023-05-09T16:32:52.507Z,96512.09
2023-05-09T16:34:56.437Z,96515.59
2023-05-09T16:36:59.548Z,96519.88
2023-05-09T16:39:04.771Z,96517.19
2023-05-09T16:41:09.063Z,96520.41
2023-05-09T16:43:11.983Z,96518.00
2023-05-09T16:45:16.374Z,96525.78
2023-05-09T16:47:19.276Z,96518.22
2023-05-09T16:49:22.467Z,96524.16
2023-05-09T16:51:25.302Z,96524.69
2023-05-09T16:53:28.312Z,96528.72
2023-05-09T16:55:31.222Z,96527.91
2023-05-09T16:57:34.552Z,96526.28
2023-05-09T16:59:37.456Z,96534.31
2023-05-09T17:01:42.416Z,96535.16
2023-05-09T17:03:45.281Z,96532.47
2023-05-09T17:05:48.152Z,96538.66
2023-05-09T17:07:51.128Z,96535.38
2023-05-09T17:09:54.017Z,96542.88
2023-05-09T17:11:56.811Z,96544.50
2023-05-09T17:13:59.993Z,96538.34
2023-05-09T17:16:02.885Z,96538.59
2023-05-09T17:18:07.441Z,96540.19
2023-05-09T17:20:11.654Z,96540.69
2023-05-09T17:22:14.684Z,96540.94
2023-05-09T17:24:17.819Z,96554.63
2023-05-09T17:26:21.090Z,96549.78
2023-05-09T17:28:24.048Z,96550.56
2023-05-09T17:30:27.184Z,96551.66
2023-05-09T17:32:30.162Z,96548.97
2023-05-09T17:34:34.583Z,96550.84
2023-05-09T17:36:37.389Z,96558.59
2023-05-09T17:38:40.217Z,96546.50
2023-05-09T17:40:43.724Z,96554.53
2023-05-09T17:42:47.099Z,96551.56
2023-05-09T17:44:50.904Z,96571.94
2023-05-09T17:46:53.784Z,96565.78
2023-05-09T17:48:56.809Z,96567.66
2023-05-09T17:51:02.394Z,96576.47
2023-05-09T17:53:09.496Z,96571.13
2023-05-09T17:55:12.631Z,96571.34
2023-05-09T17:57:15.786Z,96574.53
2023-05-09T17:59:20.439Z,96576.41
2023-05-09T18:01:26.774Z,96581.78
2023-05-09T18:03:29.826Z,96573.75
2023-05-09T18:05:32.820Z,96576.41
2023-05-09T18:07:36.974Z,96579.59
2023-05-09T18:09:40.239Z,96581.19
2023-05-09T18:11:43.556Z,96581.19
2023-05-09T18:13:47.258Z,96578.53
2023-05-09T18:15:50.225Z,96581.19
2023-05-09T18:17:54.625Z,96583.88
2023-05-09T18:19:57.836Z,96590.31
2023-05-09T18:22:00.716Z,96599.97
2023-05-09T18:24:05.646Z,96597.81
2023-05-09T18:26:08.846Z,96597.53
2023-05-09T18:28:11.866Z,96597.53
2023-05-09T18:30:15.418Z,96604.78
2023-05-09T18:32:19.281Z,96598.09
2023-05-09T18:34:22.365Z,96599.72
2023-05-09T18:36:25.839Z,96602.16
2023-05-09T18:38:28.674Z,96596.75
2023-05-09T18:40:33.888Z,96605.59
2023-05-09T18:42:37.027Z,96606.41
2023-05-09T18:44:39.909Z,96601.03
2023-05-09T18:46:42.920Z,96592.72
2023-05-09T18:48:46.015Z,96591.66
2023-05-09T18:50:52.396Z,96593.53
2023-05-09T18:52:55.307Z,96591.66
2023-05-09T18:54:58.322Z,96586.06
2023-05-09T18:57:02.916Z,96601.34
2023-05-09T18:59:05.961Z,96596.81
2023-05-09T19:01:11.911Z,96606.72
2023-05-09T19:03:15.170Z,96599.72
2023-05-09T19:05:20.435Z,96598.91
2023-05-09T19:07:23.729Z,96598.91
2023-05-09T19:09:26.840Z,96603.47
2023-05-09T19:11:29.728Z,96600.22
2023-05-09T19:13:38.330Z,96593.50
2023-05-09T19:15:41.565Z,96590.25
2023-05-09T19:17:44.846Z,96591.31
2023-05-09T19:19:48.062Z,96594.56
2023-05-09T19:21:50.875Z,96593.72
2023-05-09T19:23:53.922Z,96589.22
2023-05-09T19:25:59.843Z,96591.91
2023-05-09T19:28:03.478Z,96593.50
2023-05-09T19:30:09.425Z,96598.63
2023-05-09T19:32:12.635Z,96596.19
2023-05-09T19:34:16.426Z,96618.44
2023-05-09T19:36:21.144Z,96619.75
2023-05-09T19:38:24.098Z,96625.91
2023-05-09T19:40:27.026Z,96625.34
2023-05-09T19:42:30.058Z,96625.63
2023-05-09T19:44:32.920Z,96632.59
2023-05-09T19:46:38.452Z,96639.53
2023-05-09T19:48:41.586Z,96645.41
2023-05-09T19:50:44.682Z,96655.53
2023-05-09T19:52:47.948Z,96655.53
2023-05-09T19:54:51.160Z,96655.81
2023-05-09T19:56:54.289Z,96655.25
2023-05-09T19:58:57.214Z,96662.19
2023-05-09T20:01:00.302Z,96663.72
2023-05-09T20:03:05.016Z,96655.38
2023-05-09T20:05:08.485Z,96665.56
2023-05-09T20:07:11.392Z,96655.81
2023-05-09T20:09:17.717Z,96662.25
2023-05-09T20:11:21.776Z,96657.69
2023-05-09T20:13:24.723Z,96656.34
2023-05-09T20:15:28.159Z,96650.94
2023-05-09T20:17:30.940Z,96646.63
2023-05-09T20:19:35.124Z,96650.69
2023-05-09T20:21:37.956Z,96653.09
2023-05-09T20:23:40.983Z,96656.59
2023-05-09T20:25:43.679Z,96656.34
2023-05-09T20:27:46.560Z,96652.59
2023-05-09T20:29:49.426Z,96648.56
2023-05-09T20:31:52.705Z,96649.88
2023-05-09T20:33:55.771Z,96657.66
2023-05-09T20:36:00.947Z,96649.63
2023-05-09T20:38:05.056Z,96652.28
2023-05-09T20:40:09.186Z,96646.94
2023-05-09T20:42:12.493Z,96651.22
2023-05-09T20:44:16.858Z,96649.91
2023-05-09T20:46:19.786Z,96650.97
2023-05-09T20:48:23.612Z,96657.94
2023-05-09T20:50:26.549Z,96658.75
2023-05-09T20:52:30.866Z,96664.13
2023-05-09T20:54:33.729Z,96664.94
2023-05-09T20:56:36.686Z,96668.16
2023-05-09T20:58:39.516Z,96666.53
2023-05-09T21:00:42.536Z,96659.31
2023-05-09T21:02:45.687Z,96664.44
2023-05-09T21:04:48.622Z,96669.81
2023-05-09T21:06:52.048Z,96668.16
2023-05-09T21:08:56.340Z,96668.97
2023-05-09T21:11:01.396Z,96666.53
2023-05-09T21:13:04.758Z,96672.97
2023-05-09T21:15:09.096Z,96668.16
2023-05-09T21:17:12.698Z,96670.84
2023-05-09T21:19:15.843Z,96669.81
2023-05-09T21:21:18.766Z,96676.78
2023-05-09T21:23:22.076Z,96674.09
